Stuttgart, Kansas
Current Conditions -  °F | °C
As of 6:53 PM on Tuesday 21 Oct 2014 (Local Time) from KHLC Reporting Station
Clear Clear  
Wind Chill: 74°   Ceiling: Unl
Heat Index: 74°   Visibility: 10mi
Dew Point: 55°   Wind: 7mph
Humidity: 52%   Direction: 150°SSE
Pressure: 29.95"   Gusts: NA
Location:  39.8°N, 99.45°W
Report Text: KHLC 212353Z AUTO 15006KT 10SM CLR 23/13 A2995 RMK AO2 SLP133 6//// T02330128 10267 20233 56005
Loading
Personal Weather Stations






























Interactive Weather Map
Tropical Storm Tracking
New forecast layout! Learn more

10-Day Weather Forecast

Advertisements
Track Severe Weather on mobile